sensor_id;sensor_type;location;lat;lon;timestamp;P1;durP1;ratioP1;P2;durP2;ratioP2
60612;SDS011;46443;59.792;17.626;2023-03-12T00:00:28;3.05;;;2.05;;
60612;SDS011;46443;59.792;17.626;2023-03-12T00:02:55;4.35;;;2.15;;
60612;SDS011;46443;59.792;17.626;2023-03-12T00:05:21;2.45;;;1.70;;
60612;SDS011;46443;59.792;17.626;2023-03-12T00:07:49;2.75;;;2.38;;
60612;SDS011;46443;59.792;17.626;2023-03-12T00:10:15;2.45;;;1.90;;
60612;SDS011;46443;59.792;17.626;2023-03-12T00:12:41;2.80;;;2.25;;
60612;SDS011;46443;59.792;17.626;2023-03-12T00:15:08;4.05;;;2.20;;
60612;SDS011;46443;59.792;17.626;2023-03-12T00:17:34;3.50;;;2.45;;
60612;SDS011;46443;59.792;17.626;2023-03-12T00:20:00;2.30;;;1.92;;
60612;SDS011;46443;59.792;17.626;2023-03-12T00:22:26;2.42;;;1.95;;
60612;SDS011;46443;59.792;17.626;2023-03-12T00:24:53;4.13;;;1.85;;
60612;SDS011;46443;59.792;17.626;2023-03-12T00:27:19;2.03;;;1.77;;
60612;SDS011;46443;59.792;17.626;2023-03-12T00:29:45;3.28;;;2.28;;
60612;SDS011;46443;59.792;17.626;2023-03-12T00:32:11;2.40;;;1.80;;
60612;SDS011;46443;59.792;17.626;2023-03-12T00:34:37;2.60;;;1.85;;
60612;SDS011;46443;59.792;17.626;2023-03-12T00:37:03;3.10;;;2.47;;
60612;SDS011;46443;59.792;17.626;2023-03-12T00:39:30;1.95;;;1.75;;
60612;SDS011;46443;59.792;17.626;2023-03-12T00:41:56;2.70;;;2.00;;
60612;SDS011;46443;59.792;17.626;2023-03-12T00:44:22;2.00;;;1.77;;
60612;SDS011;46443;59.792;17.626;2023-03-12T00:46:48;3.08;;;2.28;;
60612;SDS011;46443;59.792;17.626;2023-03-12T00:49:14;3.42;;;2.35;;
60612;SDS011;46443;59.792;17.626;2023-03-12T00:51:41;3.78;;;2.15;;
60612;SDS011;46443;59.792;17.626;2023-03-12T00:54:07;3.75;;;2.47;;
60612;SDS011;46443;59.792;17.626;2023-03-12T00:56:34;2.30;;;1.95;;
60612;SDS011;46443;59.792;17.626;2023-03-12T00:59:00;3.65;;;2.10;;
60612;SDS011;46443;59.792;17.626;2023-03-12T01:01:26;3.97;;;2.60;;
60612;SDS011;46443;59.792;17.626;2023-03-12T01:03:53;5.22;;;2.33;;
60612;SDS011;46443;59.792;17.626;2023-03-12T01:06:20;3.88;;;1.98;;
60612;SDS011;46443;59.792;17.626;2023-03-12T01:08:46;2.33;;;2.05;;
60612;SDS011;46443;59.792;17.626;2023-03-12T01:11:16;2.47;;;2.17;;
60612;SDS011;46443;59.792;17.626;2023-03-12T01:13:42;1.80;;;1.70;;
60612;SDS011;46443;59.792;17.626;2023-03-12T01:16:09;3.60;;;2.45;;
60612;SDS011;46443;59.792;17.626;2023-03-12T01:18:35;4.13;;;2.15;;
60612;SDS011;46443;59.792;17.626;2023-03-12T01:21:01;2.85;;;1.73;;
60612;SDS011;46443;59.792;17.626;2023-03-12T01:23:28;3.60;;;2.38;;
60612;SDS011;46443;59.792;17.626;2023-03-12T01:25:54;2.38;;;1.83;;
60612;SDS011;46443;59.792;17.626;2023-03-12T01:28:20;2.63;;;2.03;;
60612;SDS011;46443;59.792;17.626;2023-03-12T01:30:47;1.80;;;1.70;;
60612;SDS011;46443;59.792;17.626;2023-03-12T01:33:13;2.42;;;2.17;;
60612;SDS011;46443;59.792;17.626;2023-03-12T01:35:39;5.15;;;2.42;;
60612;SDS011;46443;59.792;17.626;2023-03-12T01:38:06;3.15;;;1.90;;
60612;SDS011;46443;59.792;17.626;2023-03-12T01:40:33;5.28;;;2.50;;
60612;SDS011;46443;59.792;17.626;2023-03-12T01:43:14;4.57;;;2.50;;
60612;SDS011;46443;59.792;17.626;2023-03-12T01:48:32;3.13;;;2.08;;
60612;SDS011;46443;59.792;17.626;2023-03-12T01:50:58;2.88;;;1.90;;
60612;SDS011;46443;59.792;17.626;2023-03-12T01:53:25;4.63;;;2.38;;
60612;SDS011;46443;59.792;17.626;2023-03-12T01:55:51;6.13;;;2.50;;
60612;SDS011;46443;59.792;17.626;2023-03-12T01:58:17;2.40;;;2.03;;
60612;SDS011;46443;59.792;17.626;2023-03-12T02:00:44;5.45;;;2.53;;
60612;SDS011;46443;59.792;17.626;2023-03-12T02:03:10;2.17;;;1.75;;
60612;SDS011;46443;59.792;17.626;2023-03-12T02:08:07;2.85;;;1.90;;
60612;SDS011;46443;59.792;17.626;2023-03-12T02:10:34;1.92;;;1.83;;
60612;SDS011;46443;59.792;17.626;2023-03-12T02:13:00;4.40;;;1.80;;
60612;SDS011;46443;59.792;17.626;2023-03-12T02:15:26;2.90;;;2.20;;
60612;SDS011;46443;59.792;17.626;2023-03-12T02:17:52;2.08;;;1.85;;
60612;SDS011;46443;59.792;17.626;2023-03-12T02:22:53;3.53;;;1.73;;
60612;SDS011;46443;59.792;17.626;2023-03-12T02:28:08;2.38;;;2.00;;
60612;SDS011;46443;59.792;17.626;2023-03-12T02:30:34;3.80;;;2.28;;
60612;SDS011;46443;59.792;17.626;2023-03-12T02:33:04;4.47;;;2.28;;
60612;SDS011;46443;59.792;17.626;2023-03-12T02:35:30;3.95;;;2.08;;
60612;SDS011;46443;59.792;17.626;2023-03-12T02:37:56;2.75;;;1.95;;
60612;SDS011;46443;59.792;17.626;2023-03-12T02:42:51;4.80;;;2.70;;
60612;SDS011;46443;59.792;17.626;2023-03-12T02:45:18;4.65;;;3.13;;
60612;SDS011;46443;59.792;17.626;2023-03-12T02:47:44;4.75;;;2.60;;
60612;SDS011;46443;59.792;17.626;2023-03-12T02:50:10;4.30;;;2.75;;
60612;SDS011;46443;59.792;17.626;2023-03-12T02:52:36;3.58;;;2.70;;
60612;SDS011;46443;59.792;17.626;2023-03-12T02:55:04;2.88;;;2.50;;
60612;SDS011;46443;59.792;17.626;2023-03-12T02:57:31;4.65;;;2.58;;
60612;SDS011;46443;59.792;17.626;2023-03-12T02:59:57;4.55;;;2.33;;
60612;SDS011;46443;59.792;17.626;2023-03-12T03:02:23;2.00;;;1.80;;
60612;SDS011;46443;59.792;17.626;2023-03-12T03:04:49;3.13;;;2.40;;
60612;SDS011;46443;59.792;17.626;2023-03-12T03:07:15;2.30;;;2.10;;
60612;SDS011;46443;59.792;17.626;2023-03-12T03:09:41;3.45;;;2.15;;
60612;SDS011;46443;59.792;17.626;2023-03-12T03:12:07;5.63;;;2.65;;
60612;SDS011;46443;59.792;17.626;2023-03-12T03:14:33;4.25;;;2.78;;
60612;SDS011;46443;59.792;17.626;2023-03-12T03:16:59;2.90;;;2.35;;
60612;SDS011;46443;59.792;17.626;2023-03-12T03:19:25;2.92;;;2.42;;
60612;SDS011;46443;59.792;17.626;2023-03-12T03:21:51;2.88;;;2.13;;
60612;SDS011;46443;59.792;17.626;2023-03-12T03:24:17;6.00;;;2.75;;
60612;SDS011;46443;59.792;17.626;2023-03-12T03:26:43;2.70;;;2.15;;
60612;SDS011;46443;59.792;17.626;2023-03-12T03:29:09;3.53;;;2.20;;
60612;SDS011;46443;59.792;17.626;2023-03-12T03:31:35;2.20;;;2.00;;
60612;SDS011;46443;59.792;17.626;2023-03-12T03:34:02;4.18;;;2.70;;
60612;SDS011;46443;59.792;17.626;2023-03-12T03:36:28;3.83;;;2.47;;
60612;SDS011;46443;59.792;17.626;2023-03-12T03:38:54;4.30;;;2.70;;
60612;SDS011;46443;59.792;17.626;2023-03-12T03:41:20;4.50;;;2.28;;
60612;SDS011;46443;59.792;17.626;2023-03-12T03:43:47;2.20;;;2.00;;
60612;SDS011;46443;59.792;17.626;2023-03-12T03:46:13;3.28;;;2.28;;
60612;SDS011;46443;59.792;17.626;2023-03-12T03:48:40;3.97;;;2.45;;
60612;SDS011;46443;59.792;17.626;2023-03-12T03:51:07;3.92;;;2.47;;
60612;SDS011;46443;59.792;17.626;2023-03-12T03:53:33;4.35;;;2.70;;
60612;SDS011;46443;59.792;17.626;2023-03-12T03:56:06;3.00;;;2.35;;
60612;SDS011;46443;59.792;17.626;2023-03-12T03:58:33;4.13;;;2.28;;
60612;SDS011;46443;59.792;17.626;2023-03-12T04:00:59;3.65;;;2.30;;
60612;SDS011;46443;59.792;17.626;2023-03-12T04:03:25;2.95;;;1.95;;
60612;SDS011;46443;59.792;17.626;2023-03-12T04:05:55;2.80;;;2.35;;
60612;SDS011;46443;59.792;17.626;2023-03-12T04:08:21;5.68;;;2.50;;
60612;SDS011;46443;59.792;17.626;2023-03-12T04:10:47;3.22;;;2.25;;
60612;SDS011;46443;59.792;17.626;2023-03-12T04:13:13;4.85;;;3.45;;
60612;SDS011;46443;59.792;17.626;2023-03-12T04:15:49;2.47;;;1.90;;
60612;SDS011;46443;59.792;17.626;2023-03-12T04:18:16;3.47;;;2.53;;
60612;SDS011;46443;59.792;17.626;2023-03-12T04:20:42;2.78;;;1.70;;
60612;SDS011;46443;59.792;17.626;2023-03-12T04:23:08;4.28;;;2.50;;
60612;SDS011;46443;59.792;17.626;2023-03-12T04:25:35;2.25;;;1.88;;
60612;SDS011;46443;59.792;17.626;2023-03-12T04:28:01;2.03;;;1.58;;
60612;SDS011;46443;59.792;17.626;2023-03-12T04:30:27;3.15;;;1.90;;
60612;SDS011;46443;59.792;17.626;2023-03-12T04:32:53;2.97;;;2.25;;
60612;SDS011;46443;59.792;17.626;2023-03-12T04:35:20;2.50;;;2.30;;
60612;SDS011;46443;59.792;17.626;2023-03-12T04:37:46;3.00;;;2.38;;
60612;SDS011;46443;59.792;17.626;2023-03-12T04:40:12;3.47;;;2.45;;
60612;SDS011;46443;59.792;17.626;2023-03-12T04:42:39;3.63;;;1.90;;
60612;SDS011;46443;59.792;17.626;2023-03-12T04:45:05;4.95;;;2.17;;
60612;SDS011;46443;59.792;17.626;2023-03-12T04:47:32;2.20;;;1.70;;
60612;SDS011;46443;59.792;17.626;2023-03-12T04:49:58;3.22;;;2.38;;
60612;SDS011;46443;59.792;17.626;2023-03-12T04:52:24;3.35;;;1.90;;
60612;SDS011;46443;59.792;17.626;2023-03-12T04:54:51;2.47;;;2.28;;
60612;SDS011;46443;59.792;17.626;2023-03-12T04:57:17;1.65;;;1.55;;
60612;SDS011;46443;59.792;17.626;2023-03-12T04:59:43;3.53;;;1.90;;
60612;SDS011;46443;59.792;17.626;2023-03-12T05:02:09;5.82;;;2.28;;
60612;SDS011;46443;59.792;17.626;2023-03-12T05:04:35;2.10;;;1.80;;
60612;SDS011;46443;59.792;17.626;2023-03-12T05:07:02;4.10;;;2.40;;
60612;SDS011;46443;59.792;17.626;2023-03-12T05:09:28;2.10;;;1.83;;
60612;SDS011;46443;59.792;17.626;2023-03-12T05:11:54;3.90;;;1.83;;
60612;SDS011;46443;59.792;17.626;2023-03-12T05:14:20;3.50;;;2.47;;
60612;SDS011;46443;59.792;17.626;2023-03-12T05:16:46;3.15;;;2.00;;
60612;SDS011;46443;59.792;17.626;2023-03-12T05:19:12;1.70;;;1.60;;
60612;SDS011;46443;59.792;17.626;2023-03-12T05:21:39;2.78;;;2.20;;
60612;SDS011;46443;59.792;17.626;2023-03-12T05:26:34;3.13;;;2.03;;
60612;SDS011;46443;59.792;17.626;2023-03-12T05:29:00;2.65;;;1.85;;
60612;SDS011;46443;59.792;17.626;2023-03-12T05:31:26;2.40;;;1.90;;
60612;SDS011;46443;59.792;17.626;2023-03-12T05:33:57;2.00;;;1.80;;
60612;SDS011;46443;59.792;17.626;2023-03-12T05:36:23;3.83;;;2.35;;
60612;SDS011;46443;59.792;17.626;2023-03-12T05:38:49;3.55;;;1.83;;
60612;SDS011;46443;59.792;17.626;2023-03-12T05:41:19;2.58;;;2.00;;
60612;SDS011;46443;59.792;17.626;2023-03-12T05:43:45;3.70;;;2.40;;
60612;SDS011;46443;59.792;17.626;2023-03-12T05:46:12;3.58;;;2.22;;
60612;SDS011;46443;59.792;17.626;2023-03-12T05:48:38;2.17;;;1.75;;
60612;SDS011;46443;59.792;17.626;2023-03-12T05:51:04;1.88;;;1.70;;
60612;SDS011;46443;59.792;17.626;2023-03-12T05:53:30;2.40;;;2.20;;
60612;SDS011;46443;59.792;17.626;2023-03-12T05:56:01;3.30;;;2.17;;
60612;SDS011;46443;59.792;17.626;2023-03-12T05:58:27;2.60;;;2.20;;
60612;SDS011;46443;59.792;17.626;2023-03-12T06:00:53;2.20;;;1.65;;
60612;SDS011;46443;59.792;17.626;2023-03-12T06:03:19;4.40;;;2.35;;
60612;SDS011;46443;59.792;17.626;2023-03-12T06:05:45;4.15;;;2.60;;
60612;SDS011;46443;59.792;17.626;2023-03-12T06:08:12;2.92;;;1.85;;
60612;SDS011;46443;59.792;17.626;2023-03-12T06:10:38;3.78;;;2.20;;
60612;SDS011;46443;59.792;17.626;2023-03-12T06:13:04;3.95;;;2.33;;
60612;SDS011;46443;59.792;17.626;2023-03-12T06:15:30;2.63;;;2.20;;
60612;SDS011;46443;59.792;17.626;2023-03-12T06:17:56;1.70;;;1.55;;
60612;SDS011;46443;59.792;17.626;2023-03-12T06:20:22;3.88;;;2.30;;
60612;SDS011;46443;59.792;17.626;2023-03-12T06:22:49;4.28;;;2.35;;
60612;SDS011;46443;59.792;17.626;2023-03-12T06:25:15;3.58;;;1.92;;
60612;SDS011;46443;59.792;17.626;2023-03-12T06:27:41;2.40;;;2.03;;
60612;SDS011;46443;59.792;17.626;2023-03-12T06:30:07;2.38;;;1.55;;
60612;SDS011;46443;59.792;17.626;2023-03-12T06:32:33;2.28;;;2.08;;
60612;SDS011;46443;59.792;17.626;2023-03-12T06:35:00;3.03;;;1.88;;
60612;SDS011;46443;59.792;17.626;2023-03-12T06:37:26;2.80;;;2.03;;
60612;SDS011;46443;59.792;17.626;2023-03-12T06:39:53;4.00;;;1.88;;
60612;SDS011;46443;59.792;17.626;2023-03-12T06:42:19;3.85;;;1.90;;
60612;SDS011;46443;59.792;17.626;2023-03-12T06:44:46;2.97;;;2.30;;
60612;SDS011;46443;59.792;17.626;2023-03-12T06:47:12;2.20;;;1.90;;
60612;SDS011;46443;59.792;17.626;2023-03-12T06:49:38;3.00;;;2.10;;
60612;SDS011;46443;59.792;17.626;2023-03-12T06:52:04;1.63;;;1.50;;
60612;SDS011;46443;59.792;17.626;2023-03-12T06:54:31;3.03;;;2.00;;
60612;SDS011;46443;59.792;17.626;2023-03-12T06:56:57;2.70;;;1.80;;
60612;SDS011;46443;59.792;17.626;2023-03-12T06:59:23;3.67;;;2.15;;
60612;SDS011;46443;59.792;17.626;2023-03-12T07:01:50;2.63;;;1.92;;
60612;SDS011;46443;59.792;17.626;2023-03-12T07:04:16;1.92;;;1.73;;
60612;SDS011;46443;59.792;17.626;2023-03-12T07:06:42;2.22;;;2.03;;
60612;SDS011;46443;59.792;17.626;2023-03-12T07:09:08;4.82;;;2.20;;
60612;SDS011;46443;59.792;17.626;2023-03-12T07:11:34;3.85;;;2.13;;
60612;SDS011;46443;59.792;17.626;2023-03-12T07:14:00;2.30;;;1.83;;
60612;SDS011;46443;59.792;17.626;2023-03-12T07:16:26;3.15;;;2.10;;
60612;SDS011;46443;59.792;17.626;2023-03-12T07:18:54;3.40;;;1.70;;
60612;SDS011;46443;59.792;17.626;2023-03-12T07:21:20;3.92;;;2.33;;
60612;SDS011;46443;59.792;17.626;2023-03-12T07:23:48;2.38;;;1.80;;
60612;SDS011;46443;59.792;17.626;2023-03-12T07:26:14;5.93;;;2.38;;
60612;SDS011;46443;59.792;17.626;2023-03-12T07:28:40;3.72;;;2.40;;
60612;SDS011;46443;59.792;17.626;2023-03-12T07:31:06;2.53;;;1.88;;
60612;SDS011;46443;59.792;17.626;2023-03-12T07:33:32;4.30;;;2.65;;
60612;SDS011;46443;59.792;17.626;2023-03-12T07:35:58;2.22;;;1.92;;
60612;SDS011;46443;59.792;17.626;2023-03-12T07:38:25;5.07;;;2.30;;
60612;SDS011;46443;59.792;17.626;2023-03-12T07:40:55;2.17;;;1.85;;
60612;SDS011;46443;59.792;17.626;2023-03-12T07:43:22;3.25;;;2.13;;
60612;SDS011;46443;59.792;17.626;2023-03-12T07:45:48;2.22;;;1.80;;
60612;SDS011;46443;59.792;17.626;2023-03-12T07:48:14;3.28;;;2.10;;
60612;SDS011;46443;59.792;17.626;2023-03-12T07:50:41;4.32;;;2.85;;
60612;SDS011;46443;59.792;17.626;2023-03-12T07:53:07;5.78;;;2.85;;
60612;SDS011;46443;59.792;17.626;2023-03-12T07:55:33;4.32;;;2.30;;
60612;SDS011;46443;59.792;17.626;2023-03-12T07:58:00;3.60;;;2.50;;
60612;SDS011;46443;59.792;17.626;2023-03-12T08:00:26;4.05;;;2.20;;
60612;SDS011;46443;59.792;17.626;2023-03-12T08:02:52;3.88;;;2.40;;
60612;SDS011;46443;59.792;17.626;2023-03-12T08:05:19;3.13;;;2.45;;
60612;SDS011;46443;59.792;17.626;2023-03-12T08:07:49;3.53;;;2.63;;
60612;SDS011;46443;59.792;17.626;2023-03-12T08:10:15;3.60;;;2.08;;
60612;SDS011;46443;59.792;17.626;2023-03-12T08:12:41;4.10;;;2.30;;
60612;SDS011;46443;59.792;17.626;2023-03-12T08:15:07;6.20;;;2.72;;
60612;SDS011;46443;59.792;17.626;2023-03-12T08:17:34;6.95;;;4.60;;
60612;SDS011;46443;59.792;17.626;2023-03-12T08:20:00;8.20;;;3.92;;
60612;SDS011;46443;59.792;17.626;2023-03-12T08:22:26;5.97;;;3.20;;
60612;SDS011;46443;59.792;17.626;2023-03-12T08:24:52;5.38;;;3.13;;
60612;SDS011;46443;59.792;17.626;2023-03-12T08:27:18;4.70;;;2.97;;
60612;SDS011;46443;59.792;17.626;2023-03-12T08:29:44;4.18;;;2.70;;
60612;SDS011;46443;59.792;17.626;2023-03-12T08:32:10;5.68;;;2.65;;
60612;SDS011;46443;59.792;17.626;2023-03-12T08:34:37;4.07;;;2.42;;
60612;SDS011;46443;59.792;17.626;2023-03-12T08:37:04;5.55;;;2.92;;
60612;SDS011;46443;59.792;17.626;2023-03-12T08:39:30;4.35;;;2.50;;
60612;SDS011;46443;59.792;17.626;2023-03-12T08:41:56;4.85;;;2.50;;
60612;SDS011;46443;59.792;17.626;2023-03-12T08:44:23;5.35;;;2.90;;
60612;SDS011;46443;59.792;17.626;2023-03-12T08:46:52;4.22;;;2.58;;
60612;SDS011;46443;59.792;17.626;2023-03-12T08:49:20;4.20;;;2.40;;
60612;SDS011;46443;59.792;17.626;2023-03-12T08:51:47;4.40;;;2.28;;
60612;SDS011;46443;59.792;17.626;2023-03-12T08:54:13;5.57;;;2.78;;
60612;SDS011;46443;59.792;17.626;2023-03-12T08:56:39;4.32;;;2.63;;
60612;SDS011;46443;59.792;17.626;2023-03-12T08:59:10;4.85;;;2.40;;
60612;SDS011;46443;59.792;17.626;2023-03-12T09:01:37;6.00;;;2.70;;
60612;SDS011;46443;59.792;17.626;2023-03-12T09:04:03;3.83;;;2.03;;
60612;SDS011;46443;59.792;17.626;2023-03-12T09:06:30;4.22;;;1.90;;
60612;SDS011;46443;59.792;17.626;2023-03-12T09:08:57;2.53;;;1.73;;
60612;SDS011;46443;59.792;17.626;2023-03-12T09:11:29;3.22;;;1.75;;
60612;SDS011;46443;59.792;17.626;2023-03-12T09:13:55;3.13;;;1.80;;
60612;SDS011;46443;59.792;17.626;2023-03-12T09:16:21;2.90;;;1.58;;
60612;SDS011;46443;59.792;17.626;2023-03-12T09:18:47;1.48;;;1.27;;
60612;SDS011;46443;59.792;17.626;2023-03-12T09:21:13;1.35;;;1.10;;
60612;SDS011;46443;59.792;17.626;2023-03-12T09:23:39;1.35;;;1.20;;
60612;SDS011;46443;59.792;17.626;2023-03-12T09:26:08;1.23;;;1.23;;
60612;SDS011;46443;59.792;17.626;2023-03-12T09:28:34;1.30;;;1.20;;
60612;SDS011;46443;59.792;17.626;2023-03-12T09:31:01;2.78;;;1.10;;
60612;SDS011;46443;59.792;17.626;2023-03-12T09:33:27;1.15;;;1.10;;
60612;SDS011;46443;59.792;17.626;2023-03-12T09:35:57;1.30;;;1.20;;
60612;SDS011;46443;59.792;17.626;2023-03-12T09:38:23;1.13;;;1.10;;
60612;SDS011;46443;59.792;17.626;2023-03-12T09:40:49;1.00;;;1.00;;
60612;SDS011;46443;59.792;17.626;2023-03-12T09:43:24;1.42;;;1.30;;
60612;SDS011;46443;59.792;17.626;2023-03-12T09:45:54;2.20;;;1.20;;
60612;SDS011;46443;59.792;17.626;2023-03-12T09:48:27;1.42;;;1.30;;
60612;SDS011;46443;59.792;17.626;2023-03-12T09:50:57;1.58;;;1.40;;
60612;SDS011;46443;59.792;17.626;2023-03-12T09:53:36;1.67;;;1.10;;
60612;SDS011;46443;59.792;17.626;2023-03-12T09:56:05;1.27;;;1.17;;
60612;SDS011;46443;59.792;17.626;2023-03-12T09:58:35;1.25;;;1.13;;
60612;SDS011;46443;59.792;17.626;2023-03-12T10:06:10;2.63;;;1.30;;
60612;SDS011;46443;59.792;17.626;2023-03-12T10:25:05;1.30;;;1.20;;
60612;SDS011;46443;59.792;17.626;2023-03-12T10:27:33;1.10;;;1.00;;
60612;SDS011;46443;59.792;17.626;2023-03-12T10:30:12;1.30;;;1.20;;
60612;SDS011;46443;59.792;17.626;2023-03-12T10:32:43;1.10;;;1.00;;
60612;SDS011;46443;59.792;17.626;2023-03-12T10:35:15;1.40;;;1.00;;
60612;SDS011;46443;59.792;17.626;2023-03-12T10:37:45;1.37;;;1.27;;
60612;SDS011;46443;59.792;17.626;2023-03-12T10:40:16;5.20;;;1.17;;
60612;SDS011;46443;59.792;17.626;2023-03-12T10:42:43;1.00;;;1.00;;
60612;SDS011;46443;59.792;17.626;2023-03-12T10:47:36;1.70;;;1.00;;
60612;SDS011;46443;59.792;17.626;2023-03-12T10:50:19;1.63;;;1.03;;
60612;SDS011;46443;59.792;17.626;2023-03-12T10:52:46;1.07;;;1.03;;
60612;SDS011;46443;59.792;17.626;2023-03-12T10:55:33;1.37;;;1.07;;
60612;SDS011;46443;59.792;17.626;2023-03-12T10:57:58;1.33;;;1.00;;
60612;SDS011;46443;59.792;17.626;2023-03-12T11:00:25;1.67;;;1.17;;
60612;SDS011;46443;59.792;17.626;2023-03-12T11:02:56;1.33;;;1.00;;
60612;SDS011;46443;59.792;17.626;2023-03-12T11:05:24;2.30;;;1.10;;
60612;SDS011;46443;59.792;17.626;2023-03-12T11:07:50;2.23;;;1.17;;
60612;SDS011;46443;59.792;17.626;2023-03-12T11:10:18;1.83;;;1.10;;
60612;SDS011;46443;59.792;17.626;2023-03-12T11:15:43;1.47;;;1.20;;
60612;SDS011;46443;59.792;17.626;2023-03-12T11:20:44;2.30;;;1.13;;
60612;SDS011;46443;59.792;17.626;2023-03-12T11:23:14;0.90;;;0.90;;
60612;SDS011;46443;59.792;17.626;2023-03-12T11:28:06;0.97;;;0.90;;
60612;SDS011;46443;59.792;17.626;2023-03-12T11:30:40;0.73;;;0.73;;
60612;SDS011;46443;59.792;17.626;2023-03-12T11:33:08;1.10;;;0.87;;
60612;SDS011;46443;59.792;17.626;2023-03-12T11:36:19;0.90;;;0.90;;
60612;SDS011;46443;59.792;17.626;2023-03-12T11:38:33;0.80;;;0.80;;
60612;SDS011;46443;59.792;17.626;2023-03-12T11:41:14;1.20;;;0.90;;
60612;SDS011;46443;59.792;17.626;2023-03-12T11:43:50;0.93;;;0.90;;
60612;SDS011;46443;59.792;17.626;2023-03-12T11:51:44;0.70;;;0.70;;
60612;SDS011;46443;59.792;17.626;2023-03-12T11:56:40;0.80;;;0.80;;
60612;SDS011;46443;59.792;17.626;2023-03-12T11:59:22;1.10;;;0.87;;
60612;SDS011;46443;59.792;17.626;2023-03-12T12:10:49;2.33;;;1.10;;
60612;SDS011;46443;59.792;17.626;2023-03-12T12:20:38;1.20;;;0.90;;
60612;SDS011;46443;59.792;17.626;2023-03-12T12:23:27;1.13;;;0.95;;
60612;SDS011;46443;59.792;17.626;2023-03-12T12:26:11;1.50;;;1.13;;
60612;SDS011;46443;59.792;17.626;2023-03-12T12:31:07;1.37;;;1.00;;
60612;SDS011;46443;59.792;17.626;2023-03-12T12:36:15;3.30;;;1.27;;
60612;SDS011;46443;59.792;17.626;2023-03-12T12:41:15;1.23;;;1.00;;
60612;SDS011;46443;59.792;17.626;2023-03-12T12:43:44;0.90;;;0.90;;
60612;SDS011;46443;59.792;17.626;2023-03-12T12:46:19;2.33;;;1.23;;
60612;SDS011;46443;59.792;17.626;2023-03-12T12:51:12;3.80;;;1.43;;
60612;SDS011;46443;59.792;17.626;2023-03-12T12:58:45;1.40;;;0.90;;
60612;SDS011;46443;59.792;17.626;2023-03-12T13:01:14;1.73;;;1.10;;
60612;SDS011;46443;59.792;17.626;2023-03-12T13:03:41;0.90;;;0.90;;
60612;SDS011;46443;59.792;17.626;2023-03-12T13:06:08;1.20;;;0.87;;
60612;SDS011;46443;59.792;17.626;2023-03-12T13:13:37;1.03;;;0.83;;
60612;SDS011;46443;59.792;17.626;2023-03-12T13:18:44;0.80;;;0.80;;
60612;SDS011;46443;59.792;17.626;2023-03-12T13:24:08;0.98;;;0.90;;
60612;SDS011;46443;59.792;17.626;2023-03-12T13:27:13;1.85;;;0.90;;
60612;SDS011;46443;59.792;17.626;2023-03-12T13:32:02;1.10;;;0.93;;
60612;SDS011;46443;59.792;17.626;2023-03-12T13:34:30;1.30;;;1.00;;
60612;SDS011;46443;59.792;17.626;2023-03-12T13:36:58;0.80;;;0.80;;
60612;SDS011;46443;59.792;17.626;2023-03-12T13:39:34;0.80;;;0.80;;
60612;SDS011;46443;59.792;17.626;2023-03-12T13:45:10;1.30;;;1.20;;
60612;SDS011;46443;59.792;17.626;2023-03-12T13:47:44;1.43;;;0.90;;
60612;SDS011;46443;59.792;17.626;2023-03-12T13:50:12;0.80;;;0.80;;
60612;SDS011;46443;59.792;17.626;2023-03-12T13:55:06;0.80;;;0.80;;
60612;SDS011;46443;59.792;17.626;2023-03-12T13:57:40;1.43;;;1.00;;
60612;SDS011;46443;59.792;17.626;2023-03-12T14:03:11;0.87;;;0.80;;
60612;SDS011;46443;59.792;17.626;2023-03-12T14:05:52;1.27;;;0.80;;
60612;SDS011;46443;59.792;17.626;2023-03-12T14:18:36;1.10;;;1.00;;
60612;SDS011;46443;59.792;17.626;2023-03-12T14:21:06;2.20;;;0.93;;
60612;SDS011;46443;59.792;17.626;2023-03-12T14:23:34;1.15;;;0.80;;
60612;SDS011;46443;59.792;17.626;2023-03-12T14:26:02;1.55;;;1.17;;
60612;SDS011;46443;59.792;17.626;2023-03-12T14:28:31;1.37;;;1.07;;
60612;SDS011;46443;59.792;17.626;2023-03-12T14:31:04;1.50;;;1.40;;
60612;SDS011;46443;59.792;17.626;2023-03-12T14:33:35;0.90;;;0.90;;
60612;SDS011;46443;59.792;17.626;2023-03-12T14:36:06;0.90;;;0.90;;
60612;SDS011;46443;59.792;17.626;2023-03-12T14:38:36;1.00;;;1.00;;
60612;SDS011;46443;59.792;17.626;2023-03-12T14:41:04;0.80;;;0.80;;
60612;SDS011;46443;59.792;17.626;2023-03-12T14:43:31;1.00;;;0.90;;
60612;SDS011;46443;59.792;17.626;2023-03-12T14:46:03;1.30;;;1.10;;
60612;SDS011;46443;59.792;17.626;2023-03-12T14:48:30;1.27;;;1.00;;
60612;SDS011;46443;59.792;17.626;2023-03-12T14:50:57;0.97;;;0.80;;
60612;SDS011;46443;59.792;17.626;2023-03-12T14:53:27;1.23;;;1.08;;
60612;SDS011;46443;59.792;17.626;2023-03-12T14:58:29;0.70;;;0.70;;
60612;SDS011;46443;59.792;17.626;2023-03-12T15:00:56;0.70;;;0.70;;
60612;SDS011;46443;59.792;17.626;2023-03-12T15:03:23;1.20;;;1.10;;
60612;SDS011;46443;59.792;17.626;2023-03-12T15:05:50;0.90;;;0.90;;
60612;SDS011;46443;59.792;17.626;2023-03-12T15:08:16;1.70;;;0.95;;
60612;SDS011;46443;59.792;17.626;2023-03-12T15:10:47;1.23;;;1.08;;
60612;SDS011;46443;59.792;17.626;2023-03-12T15:13:13;1.60;;;0.90;;
60612;SDS011;46443;59.792;17.626;2023-03-12T15:15:41;1.02;;;0.93;;
60612;SDS011;46443;59.792;17.626;2023-03-12T15:18:18;1.73;;;0.90;;
60612;SDS011;46443;59.792;17.626;2023-03-12T15:20:48;1.63;;;1.00;;
60612;SDS011;46443;59.792;17.626;2023-03-12T15:25:41;0.90;;;0.90;;
60612;SDS011;46443;59.792;17.626;2023-03-12T15:30:42;1.85;;;0.90;;
60612;SDS011;46443;59.792;17.626;2023-03-12T15:35:39;0.93;;;0.90;;
60612;SDS011;46443;59.792;17.626;2023-03-12T15:38:12;0.70;;;0.70;;
60612;SDS011;46443;59.792;17.626;2023-03-12T15:40:38;0.70;;;0.70;;
60612;SDS011;46443;59.792;17.626;2023-03-12T15:43:04;0.73;;;0.73;;
60612;SDS011;46443;59.792;17.626;2023-03-12T15:45:34;0.85;;;0.85;;
60612;SDS011;46443;59.792;17.626;2023-03-12T15:48:01;0.88;;;0.85;;
60612;SDS011;46443;59.792;17.626;2023-03-12T15:50:33;1.00;;;1.00;;
60612;SDS011;46443;59.792;17.626;2023-03-12T15:53:05;1.63;;;1.00;;
60612;SDS011;46443;59.792;17.626;2023-03-12T15:55:33;1.23;;;1.00;;
60612;SDS011;46443;59.792;17.626;2023-03-12T15:57:59;0.88;;;0.88;;
60612;SDS011;46443;59.792;17.626;2023-03-12T16:02:56;1.20;;;1.10;;
60612;SDS011;46443;59.792;17.626;2023-03-12T16:05:27;0.60;;;0.60;;
60612;SDS011;46443;59.792;17.626;2023-03-12T16:07:53;0.82;;;0.82;;
60612;SDS011;46443;59.792;17.626;2023-03-12T16:10:21;1.48;;;0.90;;
60612;SDS011;46443;59.792;17.626;2023-03-12T16:12:48;1.85;;;1.00;;
60612;SDS011;46443;59.792;17.626;2023-03-12T16:15:15;1.00;;;0.88;;
60612;SDS011;46443;59.792;17.626;2023-03-12T16:17:42;0.80;;;0.80;;
60612;SDS011;46443;59.792;17.626;2023-03-12T16:20:09;0.80;;;0.80;;
60612;SDS011;46443;59.792;17.626;2023-03-12T16:22:36;0.70;;;0.70;;
60612;SDS011;46443;59.792;17.626;2023-03-12T16:25:02;0.75;;;0.75;;
60612;SDS011;46443;59.792;17.626;2023-03-12T16:27:28;0.70;;;0.70;;
60612;SDS011;46443;59.792;17.626;2023-03-12T16:29:54;1.05;;;1.05;;
60612;SDS011;46443;59.792;17.626;2023-03-12T16:32:20;0.88;;;0.88;;
60612;SDS011;46443;59.792;17.626;2023-03-12T16:34:47;1.08;;;0.95;;
60612;SDS011;46443;59.792;17.626;2023-03-12T16:37:13;0.95;;;0.88;;
60612;SDS011;46443;59.792;17.626;2023-03-12T16:39:39;2.42;;;1.10;;
60612;SDS011;46443;59.792;17.626;2023-03-12T16:42:13;0.90;;;0.90;;
60612;SDS011;46443;59.792;17.626;2023-03-12T16:44:40;1.55;;;1.00;;
60612;SDS011;46443;59.792;17.626;2023-03-12T16:47:10;0.85;;;0.85;;